createdAt,value
2023-01-26T00:01:29.215Z,47.13
2023-01-26T00:03:57.989Z,42.67
2023-01-26T00:06:27.696Z,45.60
2023-01-26T00:08:57.258Z,44.28
2023-01-26T00:11:29.078Z,44.40
2023-01-26T00:13:58.251Z,47.40
2023-01-26T00:16:26.905Z,42.53
2023-01-26T00:18:54.966Z,40.75
2023-01-26T00:21:24.385Z,41.60
2023-01-26T00:23:53.563Z,44.00
2023-01-26T00:26:22.744Z,38.67
2023-01-26T00:28:52.366Z,37.83
2023-01-26T00:31:22.999Z,36.35
2023-01-26T00:33:51.370Z,39.47
2023-01-26T00:36:19.548Z,40.25
2023-01-26T00:38:48.168Z,41.22
2023-01-26T00:41:29.875Z,40.20
2023-01-26T00:43:59.151Z,40.72
2023-01-26T00:46:27.091Z,43.65
2023-01-26T00:48:54.942Z,43.83
2023-01-26T00:51:22.779Z,46.47
2023-01-26T00:53:50.692Z,42.65
2023-01-26T00:56:20.007Z,43.33
2023-01-26T00:58:47.939Z,40.15
2023-01-26T01:01:17.133Z,42.53
2023-01-26T01:03:45.111Z,38.92
2023-01-26T01:06:13.022Z,40.33
2023-01-26T01:08:40.856Z,41.65
2023-01-26T01:11:10.554Z,41.22
2023-01-26T01:13:38.929Z,42.20
2023-01-26T01:16:08.430Z,43.90
2023-01-26T01:18:38.230Z,45.80
2023-01-26T01:21:07.945Z,46.97
2023-01-26T01:23:35.949Z,42.80
2023-01-26T01:26:04.868Z,44.38
2023-01-26T01:28:33.266Z,40.35
2023-01-26T01:31:01.406Z,46.97
2023-01-26T01:33:29.254Z,42.17
2023-01-26T01:36:00.166Z,45.40
2023-01-26T01:38:28.750Z,44.58
2023-01-26T01:40:57.488Z,41.55
2023-01-26T01:43:26.427Z,40.97
2023-01-26T01:45:54.961Z,43.50
2023-01-26T01:48:29.562Z,40.15
2023-01-26T01:51:04.157Z,39.42
2023-01-26T01:53:36.362Z,43.17
2023-01-26T01:56:09.367Z,44.27
2023-01-26T01:58:40.071Z,39.38
2023-01-26T02:01:08.416Z,43.50
2023-01-26T02:03:38.095Z,42.67
2023-01-26T02:06:14.756Z,41.75
2023-01-26T02:08:46.651Z,45.00
2023-01-26T02:11:19.938Z,45.60
2023-01-26T02:13:50.229Z,42.58
2023-01-26T02:16:18.705Z,46.75
2023-01-26T02:18:47.283Z,44.50
2023-01-26T02:21:19.280Z,41.90
2023-01-26T02:23:57.492Z,46.13
2023-01-26T02:26:28.665Z,42.72
2023-01-26T02:28:56.865Z,41.42
2023-01-26T02:31:25.299Z,45.63
2023-01-26T02:33:54.194Z,41.97
2023-01-26T02:36:23.855Z,45.28
2023-01-26T02:39:05.302Z,40.20
2023-01-26T02:41:52.650Z,40.55
2023-01-26T02:44:21.293Z,39.28
2023-01-26T02:46:49.097Z,44.42
2023-01-26T02:49:35.798Z,41.15
2023-01-26T02:52:05.231Z,46.35
2023-01-26T02:54:52.107Z,40.20
2023-01-26T02:57:21.392Z,38.83
2023-01-26T02:59:49.314Z,46.60
2023-01-26T03:02:17.237Z,39.38
2023-01-26T03:04:47.868Z,38.85
2023-01-26T03:07:16.043Z,41.05
2023-01-26T03:09:43.991Z,41.88
2023-01-26T03:12:13.028Z,45.97
2023-01-26T03:14:42.646Z,44.17
2023-01-26T03:17:10.494Z,40.05
2023-01-26T03:19:55.800Z,43.67
2023-01-26T03:22:41.041Z,42.28
2023-01-26T03:25:42.557Z,37.85
2023-01-26T03:28:13.823Z,37.90
2023-01-26T03:30:43.103Z,40.15
2023-01-26T03:33:11.296Z,43.47
2023-01-26T03:35:39.269Z,40.20
2023-01-26T03:38:07.038Z,40.65
2023-01-26T03:41:01.837Z,42.17
2023-01-26T03:43:47.410Z,37.80
2023-01-26T03:46:33.953Z,36.00
2023-01-26T03:49:19.348Z,38.95
2023-01-26T03:52:08.485Z,42.15
2023-01-26T03:54:53.657Z,34.97
2023-01-26T03:57:21.493Z,40.58
2023-01-26T03:59:50.093Z,42.25
2023-01-26T04:02:40.379Z,41.42
2023-01-26T04:05:27.868Z,39.47
2023-01-26T04:08:20.983Z,42.53
2023-01-26T04:10:51.114Z,38.75
2023-01-26T04:13:36.929Z,40.60
2023-01-26T04:16:27.085Z,36.83
2023-01-26T04:19:14.595Z,38.10
2023-01-26T04:21:42.565Z,39.30
2023-01-26T04:24:22.596Z,37.55
2023-01-26T04:26:54.752Z,38.45
2023-01-26T04:29:29.584Z,41.83
2023-01-26T04:31:57.666Z,42.28
2023-01-26T04:34:27.784Z,38.05
2023-01-26T04:36:55.773Z,43.65
2023-01-26T04:39:26.632Z,38.97
2023-01-26T04:41:57.167Z,39.08
2023-01-26T04:44:24.989Z,38.35
2023-01-26T04:46:53.124Z,35.95
2023-01-26T04:49:21.209Z,33.97
2023-01-26T04:51:50.564Z,31.83
2023-01-26T04:54:18.466Z,34.80
2023-01-26T04:56:46.878Z,38.17
2023-01-26T04:59:15.488Z,33.63
2023-01-26T05:01:44.397Z,39.92
2023-01-26T05:04:13.813Z,34.97
2023-01-26T05:06:45.025Z,32.65
2023-01-26T05:09:14.301Z,40.72
2023-01-26T05:11:44.340Z,38.28
2023-01-26T05:14:12.087Z,38.22
2023-01-26T05:17:12.532Z,36.17
2023-01-26T05:19:49.503Z,37.63
2023-01-26T05:22:35.795Z,32.80
2023-01-26T05:25:23.220Z,32.65
2023-01-26T05:28:04.851Z,35.65
2023-01-26T05:30:32.881Z,35.35
2023-01-26T05:33:03.346Z,37.03
2023-01-26T05:35:31.265Z,35.85
2023-01-26T05:37:59.886Z,41.20
2023-01-26T05:40:31.287Z,36.65
2023-01-26T05:42:59.234Z,42.08
2023-01-26T05:45:45.552Z,37.25
2023-01-26T05:48:15.283Z,39.28
2023-01-26T05:50:43.198Z,35.75
2023-01-26T05:53:20.082Z,34.92
2023-01-26T05:55:50.168Z,36.00
2023-01-26T05:58:21.678Z,35.10
2023-01-26T06:00:49.898Z,34.30
2023-01-26T06:03:24.581Z,36.28
2023-01-26T06:05:56.057Z,37.78
2023-01-26T06:08:33.100Z,35.30
2023-01-26T06:11:37.788Z,33.58
2023-01-26T06:14:28.496Z,31.05
2023-01-26T06:16:56.827Z,33.25
2023-01-26T06:19:25.310Z,31.60
2023-01-26T06:21:58.193Z,33.90
2023-01-26T06:24:26.184Z,32.63
2023-01-26T06:26:55.611Z,30.10
2023-01-26T06:29:23.528Z,33.65
2023-01-26T06:31:51.551Z,33.95
2023-01-26T06:34:19.942Z,32.35
2023-01-26T06:36:47.897Z,28.98
2023-01-26T06:39:23.852Z,29.20
2023-01-26T06:41:51.780Z,29.42
2023-01-26T06:44:21.077Z,29.48
2023-01-26T06:46:49.941Z,26.08
2023-01-26T06:49:17.753Z,29.05
2023-01-26T06:51:53.377Z,29.98
2023-01-26T06:54:21.987Z,26.70
2023-01-26T06:57:18.976Z,27.10
2023-01-26T07:00:06.979Z,28.67
2023-01-26T07:02:53.509Z,28.65
2023-01-26T07:05:21.386Z,26.92
2023-01-26T07:07:49.164Z,27.85
2023-01-26T07:10:17.121Z,29.17
2023-01-26T07:12:46.873Z,30.58
2023-01-26T07:15:16.159Z,28.38
2023-01-26T07:17:44.023Z,27.98
2023-01-26T07:20:12.959Z,29.52
2023-01-26T07:22:40.917Z,27.38
2023-01-26T07:25:09.196Z,28.38
2023-01-26T07:27:37.071Z,28.20
2023-01-26T07:30:05.500Z,29.67
2023-01-26T07:32:34.653Z,29.88
2023-01-26T07:35:02.488Z,27.38
2023-01-26T07:37:30.701Z,30.95
2023-01-26T07:39:58.440Z,27.92
2023-01-26T07:42:26.205Z,29.40
2023-01-26T07:45:06.930Z,28.55
2023-01-26T07:47:37.568Z,26.70
2023-01-26T07:50:07.227Z,28.38
2023-01-26T07:52:35.012Z,25.83
2023-01-26T07:55:02.897Z,29.67
2023-01-26T07:57:30.728Z,29.35
2023-01-26T07:59:58.681Z,29.45
2023-01-26T08:02:26.499Z,27.90
2023-01-26T08:04:55.726Z,29.05
2023-01-26T08:07:23.500Z,27.50
2023-01-26T08:09:51.321Z,28.27
2023-01-26T08:12:19.226Z,29.95
2023-01-26T08:14:47.429Z,28.65
2023-01-26T08:17:17.368Z,26.42
2023-01-26T08:19:45.527Z,29.52
2023-01-26T08:22:14.840Z,31.15
2023-01-26T08:24:42.792Z,28.75
2023-01-26T08:27:10.880Z,30.60
2023-01-26T08:29:38.831Z,30.30
2023-01-26T08:32:08.310Z,25.95
2023-01-26T08:34:36.570Z,28.40
2023-01-26T08:37:04.617Z,28.67
2023-01-26T08:39:34.007Z,25.45
2023-01-26T08:42:01.877Z,26.83
2023-01-26T08:44:29.664Z,25.50
2023-01-26T08:46:57.429Z,27.00
2023-01-26T08:49:25.344Z,28.10
2023-01-26T08:51:53.283Z,24.80
2023-01-26T08:54:21.079Z,25.52
2023-01-26T08:56:50.224Z,24.80
2023-01-26T08:59:17.995Z,27.08
2023-01-26T09:01:45.862Z,25.85
2023-01-26T09:04:13.736Z,25.27
2023-01-26T09:06:41.574Z,25.35
2023-01-26T09:09:13.156Z,25.35
2023-01-26T09:11:41.106Z,23.73
2023-01-26T09:14:10.306Z,25.65
2023-01-26T09:16:38.201Z,26.90
2023-01-26T09:19:06.035Z,26.00
2023-01-26T09:21:34.129Z,26.77
2023-01-26T09:24:02.562Z,24.27
2023-01-26T09:26:31.259Z,25.48
2023-01-26T09:28:59.295Z,26.60
2023-01-26T09:31:28.755Z,24.50
2023-01-26T09:33:56.562Z,23.35
2023-01-26T09:36:24.413Z,25.98
2023-01-26T09:38:54.241Z,26.67
2023-01-26T09:41:44.375Z,26.13
2023-01-26T09:44:19.726Z,26.75
2023-01-26T09:47:02.673Z,26.40
2023-01-26T09:49:38.192Z,28.45
2023-01-26T09:52:11.403Z,24.90
2023-01-26T09:54:42.838Z,28.90
2023-01-26T09:57:17.648Z,27.95
2023-01-26T09:59:49.962Z,24.95
2023-01-26T10:02:30.547Z,23.15
2023-01-26T10:05:02.546Z,26.70
2023-01-26T10:07:30.457Z,26.42
2023-01-26T10:09:58.427Z,25.17
2023-01-26T10:12:31.708Z,25.55
2023-01-26T10:15:03.930Z,25.33
2023-01-26T10:17:36.797Z,26.03
2023-01-26T10:22:44.437Z,23.70
2023-01-26T10:25:18.407Z,29.85
2023-01-26T10:27:46.956Z,24.15
2023-01-26T10:30:16.583Z,24.95
2023-01-26T10:32:48.024Z,25.55
2023-01-26T10:35:19.857Z,26.00
2023-01-26T10:37:48.302Z,26.73
2023-01-26T10:40:17.398Z,25.15
2023-01-26T10:42:56.240Z,25.15
2023-01-26T10:45:30.493Z,27.55
2023-01-26T10:48:17.636Z,23.63
2023-01-26T10:50:45.801Z,22.45
2023-01-26T10:53:19.095Z,24.52
2023-01-26T10:56:00.053Z,23.17
2023-01-26T10:58:44.998Z,26.83
2023-01-26T11:01:15.634Z,25.73
2023-01-26T11:04:01.451Z,24.73
2023-01-26T11:06:30.518Z,22.55
2023-01-26T11:09:11.313Z,26.50
2023-01-26T11:11:42.906Z,24.65
2023-01-26T11:14:12.788Z,26.23
2023-01-26T11:16:42.939Z,23.17
2023-01-26T11:19:15.181Z,23.85
2023-01-26T11:21:47.532Z,25.07
2023-01-26T11:24:21.487Z,21.20
2023-01-26T11:27:13.807Z,20.08
2023-01-26T11:29:54.331Z,19.23
2023-01-26T11:32:31.373Z,22.30
2023-01-26T11:35:14.186Z,21.17
2023-01-26T11:37:46.256Z,20.20
2023-01-26T11:40:38.182Z,22.20
2023-01-26T11:43:35.754Z,21.27
2023-01-26T11:46:26.945Z,20.45
2023-01-26T11:49:09.751Z,17.75
2023-01-26T11:51:48.791Z,19.40
2023-01-26T11:54:31.220Z,19.60
2023-01-26T11:57:09.414Z,17.63
2023-01-26T11:59:42.959Z,21.13
2023-01-26T12:02:27.707Z,18.70
2023-01-26T12:04:58.766Z,19.75
2023-01-26T12:07:31.285Z,19.05
2023-01-26T12:10:01.541Z,18.45
2023-01-26T12:12:38.358Z,16.73
2023-01-26T12:15:14.381Z,16.05
2023-01-26T12:17:52.454Z,14.23
2023-01-26T12:20:28.458Z,13.73
2023-01-26T12:23:04.828Z,13.73
2023-01-26T12:25:36.007Z,12.23
2023-01-26T12:28:17.942Z,14.48
2023-01-26T12:30:53.393Z,14.40
2023-01-26T12:33:21.498Z,14.02
2023-01-26T12:36:05.994Z,14.40
2023-01-26T12:38:44.670Z,13.90
2023-01-26T12:41:19.987Z,13.88
2023-01-26T12:43:58.260Z,13.27
2023-01-26T12:46:32.501Z,14.63
2023-01-26T12:49:05.521Z,15.82
2023-01-26T12:54:11.991Z,14.52
2023-01-26T12:56:45.925Z,14.70
2023-01-26T12:59:38.898Z,13.73
2023-01-26T13:02:20.419Z,11.65
2023-01-26T13:04:49.281Z,16.95
2023-01-26T13:07:36.539Z,14.07
2023-01-26T13:10:30.784Z,12.90
2023-01-26T13:13:00.844Z,13.52
2023-01-26T13:15:30.300Z,11.77
2023-01-26T13:18:00.447Z,12.07
2023-01-26T13:20:52.112Z,10.93
2023-01-26T13:23:53.154Z,12.35
2023-01-26T13:26:26.501Z,11.32
2023-01-26T13:29:32.674Z,12.65
2023-01-26T13:32:02.737Z,13.95
2023-01-26T13:34:36.687Z,13.48
2023-01-26T13:37:09.952Z,14.20
2023-01-26T13:39:42.449Z,13.40
2023-01-26T13:42:21.495Z,14.27
2023-01-26T13:44:57.717Z,14.90
2023-01-26T13:47:29.409Z,12.93
2023-01-26T13:49:57.224Z,13.27
2023-01-26T13:52:26.979Z,12.95
2023-01-26T13:54:57.761Z,13.45
2023-01-26T13:57:28.524Z,13.38
2023-01-26T13:59:59.081Z,13.52
2023-01-26T14:02:28.589Z,15.00
2023-01-26T14:04:58.223Z,14.85
2023-01-26T14:07:29.540Z,16.48
2023-01-26T14:10:01.675Z,16.80
2023-01-26T14:12:34.488Z,11.40
2023-01-26T14:15:05.714Z,14.93
2023-01-26T14:17:36.633Z,15.70
2023-01-26T14:20:22.125Z,16.08
2023-01-26T14:23:04.210Z,16.80
2023-01-26T14:25:32.234Z,17.23
2023-01-26T14:28:01.468Z,18.67
2023-01-26T14:30:31.729Z,17.55
2023-01-26T14:33:04.965Z,19.15
2023-01-26T14:35:33.385Z,19.38
2023-01-26T14:38:15.076Z,20.73
2023-01-26T14:40:47.196Z,22.30
2023-01-26T14:43:17.228Z,22.80
2023-01-26T14:45:50.006Z,20.60
2023-01-26T14:48:21.754Z,22.40
2023-01-26T14:50:50.092Z,24.83
2023-01-26T14:53:22.131Z,25.80
2023-01-26T14:55:51.689Z,21.75
2023-01-26T14:58:26.327Z,20.77
2023-01-26T15:00:54.893Z,22.20
2023-01-26T15:03:27.254Z,23.35
2023-01-26T15:06:07.452Z,19.85
2023-01-26T15:08:36.356Z,22.52
2023-01-26T15:11:21.751Z,22.15
2023-01-26T15:13:55.256Z,25.20
2023-01-26T15:16:25.046Z,22.27
2023-01-26T15:18:59.848Z,17.52
2023-01-26T15:21:33.906Z,21.63
2023-01-26T15:24:01.934Z,23.48
2023-01-26T15:26:32.773Z,26.70
2023-01-26T15:29:05.717Z,23.40
2023-01-26T15:34:04.086Z,24.13
2023-01-26T15:36:35.241Z,23.45
2023-01-26T15:39:12.188Z,27.05
2023-01-26T15:41:40.214Z,26.65
2023-01-26T15:44:15.885Z,31.02
2023-01-26T15:46:44.737Z,26.35
2023-01-26T15:49:12.537Z,26.48
2023-01-26T15:51:40.645Z,26.98
2023-01-26T15:54:11.157Z,23.48
2023-01-26T15:56:39.243Z,25.15
2023-01-26T15:59:07.148Z,24.05
2023-01-26T16:01:36.537Z,23.13
2023-01-26T16:04:04.299Z,25.25
2023-01-26T16:06:33.817Z,24.70
2023-01-26T16:09:01.639Z,26.80
2023-01-26T16:11:32.488Z,27.38
2023-01-26T16:14:04.102Z,23.40
2023-01-26T16:16:33.518Z,26.60
2023-01-26T16:19:02.827Z,30.98
2023-01-26T16:21:34.991Z,26.73
2023-01-26T16:24:03.633Z,28.73
2023-01-26T16:26:32.522Z,28.58
2023-01-26T16:29:00.407Z,27.33
2023-01-26T16:31:30.464Z,23.90
2023-01-26T16:33:59.019Z,27.90
2023-01-26T16:36:28.608Z,27.67
2023-01-26T16:38:56.567Z,24.92
2023-01-26T16:41:27.606Z,32.90
2023-01-26T16:43:56.666Z,25.88
2023-01-26T16:46:24.885Z,24.95
2023-01-26T16:48:53.144Z,23.60
2023-01-26T16:51:24.967Z,22.10
2023-01-26T16:53:55.378Z,25.80
2023-01-26T16:56:24.615Z,25.55
2023-01-26T16:58:52.763Z,25.70
2023-01-26T17:01:23.084Z,24.67
2023-01-26T17:03:52.055Z,23.10
2023-01-26T17:06:20.727Z,25.92
2023-01-26T17:08:49.274Z,25.48
2023-01-26T17:11:25.519Z,27.35
2023-01-26T17:13:55.908Z,24.80
2023-01-26T17:16:25.335Z,24.40
2023-01-26T17:18:53.402Z,22.90
2023-01-26T17:21:21.820Z,23.65
2023-01-26T17:23:50.903Z,26.83
2023-01-26T17:26:21.558Z,25.65
2023-01-26T17:28:50.902Z,21.70
2023-01-26T17:31:20.334Z,24.75
2023-01-26T17:33:50.049Z,20.67
2023-01-26T17:36:19.540Z,23.25
2023-01-26T17:38:48.020Z,24.58
2023-01-26T17:41:15.863Z,21.98
2023-01-26T17:43:45.106Z,24.60
2023-01-26T17:46:15.049Z,20.73
2023-01-26T17:48:45.268Z,24.77
2023-01-26T17:51:16.550Z,23.58
2023-01-26T17:53:46.365Z,22.02
2023-01-26T17:56:16.689Z,22.35
2023-01-26T17:58:48.970Z,22.80
2023-01-26T18:01:17.036Z,29.17
2023-01-26T18:03:45.075Z,26.33
2023-01-26T18:06:13.115Z,26.70
2023-01-26T18:08:41.328Z,25.85
2023-01-26T18:11:12.308Z,26.70
2023-01-26T18:13:40.540Z,23.70
2023-01-26T18:16:13.090Z,27.42
2023-01-26T18:18:41.010Z,29.98
2023-01-26T18:21:13.877Z,29.88
2023-01-26T18:23:44.924Z,26.42
2023-01-26T18:26:13.221Z,31.83
2023-01-26T18:28:41.962Z,25.92
2023-01-26T18:31:13.291Z,25.95
2023-01-26T18:33:41.269Z,25.63
2023-01-26T18:36:11.991Z,27.25
2023-01-26T18:38:40.096Z,25.25
2023-01-26T18:41:12.005Z,28.63
2023-01-26T18:43:40.298Z,27.83
2023-01-26T18:46:08.929Z,22.52
2023-01-26T18:48:38.438Z,24.67
2023-01-26T18:51:08.609Z,26.20
2023-01-26T18:53:38.504Z,31.85
2023-01-26T18:56:08.090Z,32.17
2023-01-26T18:58:37.872Z,28.50
2023-01-26T19:01:09.753Z,30.25
2023-01-26T19:03:41.639Z,30.02
2023-01-26T19:06:10.331Z,28.80
2023-01-26T19:08:38.818Z,35.33
2023-01-26T19:11:07.952Z,32.17
2023-01-26T19:13:36.373Z,34.20
2023-01-26T19:16:05.861Z,27.60
2023-01-26T19:18:35.336Z,29.40
2023-01-26T19:21:05.735Z,25.27
2023-01-26T19:23:34.099Z,26.35
2023-01-26T19:26:01.970Z,25.45
2023-01-26T19:28:29.843Z,24.38
2023-01-26T19:31:04.262Z,26.23
2023-01-26T19:33:32.150Z,24.77
2023-01-26T19:36:02.710Z,23.48
2023-01-26T19:38:33.122Z,21.95
2023-01-26T19:41:02.184Z,21.05
2023-01-26T19:43:30.268Z,26.80
2023-01-26T19:45:58.206Z,27.17
2023-01-26T19:48:27.967Z,25.67
2023-01-26T19:51:00.837Z,27.63
2023-01-26T19:53:29.039Z,28.75
2023-01-26T19:55:59.778Z,23.98
2023-01-26T19:58:28.260Z,20.65
2023-01-26T20:01:00.406Z,23.10
2023-01-26T20:03:28.295Z,23.30
2023-01-26T20:05:56.105Z,25.00
2023-01-26T20:08:24.063Z,28.30
2023-01-26T20:10:51.991Z,29.83
2023-01-26T20:13:21.462Z,28.33
2023-01-26T20:15:49.345Z,30.52
2023-01-26T20:18:17.353Z,31.77
2023-01-26T20:20:50.346Z,30.00
2023-01-26T20:23:18.892Z,28.08
2023-01-26T20:25:47.388Z,32.35
2023-01-26T20:28:16.134Z,25.90
2023-01-26T20:30:45.722Z,31.92
2023-01-26T20:33:13.782Z,33.67
2023-01-26T20:35:43.453Z,33.42
2023-01-26T20:38:11.958Z,31.95
2023-01-26T20:40:40.103Z,35.08
2023-01-26T20:43:07.972Z,32.25
2023-01-26T20:45:35.780Z,32.28
2023-01-26T20:48:05.305Z,30.08
2023-01-26T20:50:40.009Z,28.10
2023-01-26T20:53:08.340Z,32.20
2023-01-26T20:55:36.634Z,28.60
2023-01-26T20:58:06.809Z,27.50
2023-01-26T21:00:36.078Z,28.98
2023-01-26T21:03:05.642Z,24.67
2023-01-26T21:05:33.550Z,25.98
2023-01-26T21:08:01.389Z,24.42
2023-01-26T21:10:29.214Z,27.08
2023-01-26T21:12:57.083Z,26.63
2023-01-26T21:15:25.027Z,23.70
2023-01-26T21:17:52.850Z,22.27
2023-01-26T21:20:22.075Z,20.30
2023-01-26T21:22:50.034Z,18.58
2023-01-26T21:25:18.167Z,20.10
2023-01-26T21:27:45.929Z,22.00
2023-01-26T21:30:14.595Z,19.08
2023-01-26T21:32:42.623Z,18.65
2023-01-26T21:35:11.127Z,17.20
2023-01-26T21:37:40.334Z,17.10
2023-01-26T21:40:09.771Z,16.20
2023-01-26T21:42:37.881Z,17.52
2023-01-26T21:45:24.074Z,14.65
2023-01-26T21:48:12.016Z,15.63
2023-01-26T21:51:12.809Z,14.43
2023-01-26T21:53:42.113Z,13.77
2023-01-26T21:56:10.130Z,13.55
2023-01-26T21:58:57.790Z,12.85
2023-01-26T22:01:26.156Z,13.73
2023-01-26T22:03:56.407Z,12.27
2023-01-26T22:06:24.569Z,13.35
2023-01-26T22:08:53.892Z,11.50
2023-01-26T22:11:22.674Z,12.15
2023-01-26T22:13:50.527Z,9.50
2023-01-26T22:16:18.891Z,11.10
2023-01-26T22:18:46.893Z,12.25
2023-01-26T22:21:14.797Z,7.75
2023-01-26T22:23:43.209Z,10.30
2023-01-26T22:26:14.542Z,9.13
2023-01-26T22:28:44.241Z,8.60
2023-01-26T22:31:12.237Z,8.98
2023-01-26T22:33:40.211Z,8.70
2023-01-26T22:36:10.130Z,8.05
2023-01-26T22:38:38.901Z,7.22
2023-01-26T22:41:07.917Z,7.45
2023-01-26T22:43:37.102Z,6.38
2023-01-26T22:46:06.378Z,7.72
2023-01-26T22:48:34.863Z,7.82
2023-01-26T22:51:07.872Z,6.20
2023-01-26T22:56:04.761Z,5.65
2023-01-26T22:58:35.211Z,8.00
2023-01-26T23:01:11.611Z,7.90
2023-01-26T23:03:40.715Z,6.93
2023-01-26T23:06:12.384Z,5.72
2023-01-26T23:08:40.892Z,6.18
2023-01-26T23:11:11.814Z,6.00
2023-01-26T23:13:42.318Z,7.53
2023-01-26T23:16:12.339Z,6.25
2023-01-26T23:18:40.217Z,5.30
2023-01-26T23:21:09.102Z,6.93
2023-01-26T23:23:37.194Z,7.05
2023-01-26T23:26:05.277Z,6.88
2023-01-26T23:28:34.650Z,4.72
2023-01-26T23:31:02.625Z,6.43
2023-01-26T23:33:33.521Z,6.10
2023-01-26T23:36:01.652Z,4.55
2023-01-26T23:38:30.910Z,4.53
2023-01-26T23:41:00.313Z,5.85
2023-01-26T23:43:28.906Z,6.30
2023-01-26T23:45:57.014Z,5.30
2023-01-26T23:48:25.799Z,5.55
2023-01-26T23:50:58.229Z,5.68
2023-01-26T23:53:26.111Z,8.25
2023-01-26T23:55:54.196Z,4.55
2023-01-26T23:58:22.055Z,5.57
